Casablanca, Morocco
Current Conditions -  °F | °C
As of 2:00 AM on Tuesday 25 Nov 2014 (Local Time) from GMMC Reporting Station
Clear Clear  
Wind Chill: 13°   Ceiling: Unl
Heat Index: 13°   Visibility: 6mi
Dew Point: 13°   Wind: 5mph
Humidity: 100%   Direction: 180°S
Pressure: 30.03"   Gusts: NA
Location:  33.6°N, 7.62°W
Report Text: GMMC 250100Z 18004KT CAVOK 13/13 Q1017
Loading
Personal Weather Stations






























Interactive Weather Map New forecast layout! Learn more

10-Day Weather Forecast

Advertisements
Track Severe Weather on mobile